createdAt,value
2023-10-13T00:02:07.379Z,2.50
2023-10-13T00:04:38.100Z,3.30
2023-10-13T00:07:11.220Z,2.40
2023-10-13T00:09:44.019Z,2.60
2023-10-13T00:12:17.107Z,2.80
2023-10-13T00:14:53.039Z,2.50
2023-10-13T00:17:27.108Z,2.60
2023-10-13T00:20:02.062Z,3.10
2023-10-13T00:22:36.352Z,2.50
2023-10-13T00:25:07.171Z,2.40
2023-10-13T00:27:43.012Z,3.20
2023-10-13T00:30:22.436Z,2.40
2023-10-13T00:32:58.182Z,3.10
2023-10-13T00:35:37.288Z,3.30
2023-10-13T00:38:14.891Z,2.60
2023-10-13T00:47:37.391Z,2.70
2023-10-13T00:50:06.351Z,3.50
2023-10-13T00:52:37.086Z,2.60
2023-10-13T00:55:06.586Z,2.90
2023-10-13T00:57:35.313Z,3.40
2023-10-13T01:00:18.783Z,3.00
2023-10-13T01:02:56.536Z,3.40
2023-10-13T01:05:26.575Z,2.90
2023-10-13T01:07:55.763Z,2.40
2023-10-13T01:10:27.537Z,2.50
2023-10-13T01:12:56.252Z,3.10
2023-10-13T01:15:30.851Z,2.20
2023-10-13T01:18:13.823Z,2.80
2023-10-13T01:20:53.337Z,3.60
2023-10-13T01:23:25.764Z,2.80
2023-10-13T01:25:55.116Z,2.70
2023-10-13T01:28:25.404Z,2.70
2023-10-13T01:30:54.386Z,2.60
2023-10-13T01:33:29.762Z,2.70
2023-10-13T01:36:00.360Z,3.00
2023-10-13T01:38:28.945Z,2.30
2023-10-13T01:40:58.427Z,2.70
2023-10-13T01:43:27.030Z,2.80
2023-10-13T01:45:56.292Z,3.50
2023-10-13T01:48:24.406Z,2.90
2023-10-13T01:50:57.581Z,2.70
2023-10-13T01:53:25.842Z,3.10
2023-10-13T01:55:58.094Z,3.30
2023-10-13T01:58:30.154Z,3.30
2023-10-13T02:01:01.293Z,3.20
2023-10-13T02:03:31.439Z,3.30
2023-10-13T02:06:05.811Z,3.00
2023-10-13T02:08:41.770Z,3.20
2023-10-13T02:11:10.851Z,3.20
2023-10-13T02:13:49.794Z,3.20
2023-10-13T02:16:25.811Z,2.80
2023-10-13T02:18:54.880Z,3.60
2023-10-13T02:21:23.255Z,3.40
2023-10-13T02:24:06.663Z,4.10
2023-10-13T02:26:40.374Z,4.50
2023-10-13T02:29:08.997Z,4.00
2023-10-13T02:31:42.042Z,4.30
2023-10-13T02:34:10.484Z,3.80
2023-10-13T02:36:59.307Z,4.10
2023-10-13T02:39:28.667Z,3.70
2023-10-13T02:41:57.628Z,4.10
2023-10-13T02:44:32.462Z,4.30
2023-10-13T02:47:01.144Z,4.40
2023-10-13T02:49:35.501Z,4.60
2023-10-13T02:52:26.148Z,4.40
2023-10-13T02:54:55.008Z,5.30
2023-10-13T02:57:24.151Z,3.80
2023-10-13T02:59:58.458Z,4.50
2023-10-13T03:02:27.216Z,4.20
2023-10-13T03:05:00.760Z,4.70
2023-10-13T03:07:30.335Z,5.10
2023-10-13T03:10:02.022Z,4.70
2023-10-13T03:12:34.643Z,6.50
2023-10-13T03:15:20.540Z,4.60
2023-10-13T03:17:49.018Z,4.30
2023-10-13T03:20:25.608Z,4.60
2023-10-13T03:25:30.216Z,3.60
2023-10-13T03:28:01.250Z,3.80
2023-10-13T03:30:56.336Z,3.30
2023-10-13T03:33:27.434Z,3.30
2023-10-13T03:35:55.764Z,3.40
2023-10-13T03:38:29.011Z,3.80
2023-10-13T03:40:58.072Z,3.60
2023-10-13T03:43:26.520Z,3.70
2023-10-13T03:46:09.386Z,3.50
2023-10-13T03:48:54.105Z,3.80
2023-10-13T03:51:22.444Z,4.10
2023-10-13T03:53:57.612Z,4.30
2023-10-13T03:56:46.111Z,4.30
2023-10-13T03:59:14.512Z,3.60
2023-10-13T04:01:59.957Z,4.50
2023-10-13T04:04:43.715Z,4.30
2023-10-13T04:07:11.820Z,4.00
2023-10-13T04:09:41.229Z,4.30
2023-10-13T04:12:27.916Z,4.90
2023-10-13T04:15:07.868Z,3.90
2023-10-13T04:17:42.527Z,4.70
2023-10-13T04:20:10.984Z,4.60
2023-10-13T04:22:49.445Z,3.90
2023-10-13T04:25:42.681Z,4.70
2023-10-13T04:28:17.620Z,5.40
2023-10-13T04:30:57.456Z,5.00
2023-10-13T04:33:36.575Z,4.90
2023-10-13T04:36:29.164Z,5.10
2023-10-13T04:39:06.341Z,4.40
2023-10-13T04:41:46.665Z,5.10
2023-10-13T04:44:35.906Z,4.80
2023-10-13T04:47:04.565Z,4.50
2023-10-13T04:49:50.920Z,5.00
2023-10-13T04:52:53.076Z,4.10
2023-10-13T04:55:39.740Z,4.40
2023-10-13T04:58:36.716Z,4.40
2023-10-13T05:01:38.214Z,5.00
2023-10-13T05:04:15.489Z,4.30
2023-10-13T05:06:46.574Z,3.80
2023-10-13T05:09:33.622Z,5.00
2023-10-13T05:12:20.477Z,5.50
2023-10-13T05:17:53.813Z,5.90
2023-10-13T05:20:40.311Z,5.80
2023-10-13T05:23:27.201Z,5.40
2023-10-13T05:26:13.865Z,5.20
2023-10-13T05:29:00.302Z,4.90
2023-10-13T05:31:47.412Z,6.20
2023-10-13T05:34:34.544Z,7.00
2023-10-13T05:40:08.359Z,5.90
2023-10-13T05:45:41.259Z,6.60
2023-10-13T05:48:25.797Z,7.20
2023-10-13T05:51:12.838Z,7.10
2023-10-13T05:53:59.657Z,6.40
2023-10-13T05:56:46.439Z,7.90
2023-10-13T05:59:33.427Z,7.30
2023-10-13T06:05:06.437Z,7.50
2023-10-13T06:07:54.464Z,8.60
2023-10-13T06:10:43.269Z,8.30
2023-10-13T06:14:30.480Z,8.70
2023-10-13T06:18:18.961Z,9.90
2023-10-13T06:36:13.441Z,6.90
2023-10-13T06:39:02.149Z,6.90
2023-10-13T06:42:10.438Z,8.80
2023-10-13T06:48:26.777Z,8.70
2023-10-13T06:51:54.724Z,9.20
2023-10-13T06:55:51.707Z,8.90
2023-10-13T06:59:59.432Z,8.80
2023-10-13T07:30:21.190Z,3.60
2023-10-13T07:33:14.428Z,4.10
2023-10-13T07:36:25.557Z,4.90
2023-10-13T07:39:47.289Z,6.50
2023-10-13T07:43:35.136Z,6.90
2023-10-13T07:46:23.689Z,5.90
2023-10-13T07:50:12.009Z,6.00
2023-10-13T07:53:59.875Z,8.10
2023-10-13T08:22:03.397Z,11.40
2023-10-13T08:25:37.138Z,11.00
2023-10-13T08:28:55.146Z,13.20
2023-10-13T08:32:15.815Z,12.40
2023-10-13T08:35:31.541Z,12.50
2023-10-13T08:39:17.112Z,12.50
2023-10-13T08:42:47.826Z,14.30
2023-10-13T08:57:52.823Z,14.30
2023-10-13T09:01:36.379Z,10.60
2023-10-13T09:16:43.603Z,9.00
2023-10-13T09:19:13.528Z,8.40
2023-10-13T09:21:42.854Z,7.90
2023-10-13T09:24:27.692Z,7.60
2023-10-13T09:26:56.932Z,8.80
2023-10-13T09:29:26.408Z,8.50
2023-10-13T09:32:05.436Z,7.70
2023-10-13T09:34:41.902Z,8.40
2023-10-13T09:41:01.834Z,9.10
2023-10-13T09:44:31.361Z,9.90
2023-10-13T09:47:42.050Z,10.70
2023-10-13T09:50:48.033Z,9.90
2023-10-13T09:53:19.536Z,10.90
2023-10-13T09:56:12.477Z,12.80
2023-10-13T09:59:09.664Z,14.70
2023-10-13T10:01:51.814Z,14.60
2023-10-13T10:04:24.585Z,15.20
2023-10-13T10:06:57.509Z,16.90
2023-10-13T10:09:50.760Z,18.90
2023-10-13T10:12:30.856Z,18.70
2023-10-13T10:15:21.575Z,21.30
2023-10-13T10:18:49.926Z,21.30
2023-10-13T10:22:58.144Z,21.70
2023-10-13T10:29:03.389Z,19.30
2023-10-13T10:31:42.632Z,19.60
2023-10-13T10:34:21.035Z,18.10
2023-10-13T10:37:15.866Z,15.70
2023-10-13T10:39:51.206Z,14.20
2023-10-13T10:47:38.612Z,12.70
2023-10-13T10:50:36.147Z,14.30
2023-10-13T10:53:11.314Z,14.30
2023-10-13T10:55:42.605Z,12.80
2023-10-13T10:58:56.337Z,12.80
2023-10-13T11:02:24.646Z,13.30
2023-10-13T11:05:18.223Z,12.60
2023-10-13T11:07:52.259Z,11.70
2023-10-13T11:10:28.500Z,12.80
2023-10-13T11:13:24.740Z,12.60
2023-10-13T11:15:52.101Z,12.20
2023-10-13T11:18:39.158Z,12.90
2023-10-13T11:21:08.292Z,12.50
2023-10-13T11:23:40.847Z,12.10
2023-10-13T11:26:09.037Z,12.40
2023-10-13T11:29:11.030Z,12.10
2023-10-13T11:31:44.002Z,11.70
2023-10-13T11:34:14.763Z,12.20
2023-10-13T11:36:45.667Z,11.40
2023-10-13T11:39:25.836Z,12.20
2023-10-13T11:43:13.585Z,12.40
2023-10-13T11:46:47.943Z,11.90
2023-10-13T11:50:02.643Z,12.30
2023-10-13T11:53:25.163Z,12.70
2023-10-13T11:57:39.121Z,11.80
2023-10-13T12:05:03.866Z,12.20
2023-10-13T12:07:46.690Z,11.50
2023-10-13T12:33:52.934Z,10.30
2023-10-13T12:36:22.471Z,10.20
2023-10-13T12:39:02.383Z,9.10
2023-10-13T12:41:48.898Z,8.90
2023-10-13T12:44:43.775Z,9.90
2023-10-13T12:47:32.970Z,8.60
2023-10-13T12:50:08.638Z,9.60
2023-10-13T12:52:41.771Z,9.00
2023-10-13T12:55:11.464Z,9.50
2023-10-13T12:57:45.970Z,9.00
2023-10-13T13:00:26.444Z,9.70
2023-10-13T13:02:57.549Z,9.60
2023-10-13T13:05:43.355Z,10.20
2023-10-13T13:08:13.682Z,9.40
2023-10-13T13:10:44.998Z,9.70
2023-10-13T13:13:14.191Z,8.90
2023-10-13T13:15:42.175Z,9.80
2023-10-13T13:18:13.247Z,8.80
2023-10-13T13:20:44.727Z,9.90
2023-10-13T13:23:15.428Z,8.50
2023-10-13T13:26:16.573Z,8.60
2023-10-13T13:28:51.482Z,7.60
2023-10-13T13:31:20.578Z,8.70
2023-10-13T13:33:48.566Z,7.00
2023-10-13T13:36:17.612Z,7.50
2023-10-13T13:39:26.187Z,7.20
2023-10-13T13:41:58.001Z,6.90
2023-10-13T13:44:30.441Z,7.30
2023-10-13T13:46:58.677Z,7.80
2023-10-13T13:49:41.569Z,7.20
2023-10-13T13:52:19.092Z,6.80
2023-10-13T13:54:50.194Z,7.00
2023-10-13T13:57:24.045Z,7.70
2023-10-13T13:59:59.050Z,7.60
2023-10-13T14:02:29.909Z,7.20
2023-10-13T14:04:58.734Z,8.70
2023-10-13T14:07:47.165Z,7.60
2023-10-13T14:10:54.972Z,6.70
2023-10-13T14:13:43.349Z,6.30
2023-10-13T14:16:17.717Z,8.00
2023-10-13T14:18:51.218Z,8.20
2023-10-13T14:21:25.832Z,7.30
2023-10-13T14:23:54.884Z,8.10
2023-10-13T14:26:35.706Z,8.00
2023-10-13T14:29:09.301Z,8.10
2023-10-13T14:31:40.084Z,7.80
2023-10-13T14:34:09.045Z,8.10
2023-10-13T14:36:38.066Z,8.30
2023-10-13T14:39:22.793Z,8.40
2023-10-13T14:41:51.024Z,8.00
2023-10-13T14:44:19.365Z,7.80
2023-10-13T14:46:47.526Z,8.20
2023-10-13T14:49:19.962Z,7.50
2023-10-13T14:51:48.263Z,8.70
2023-10-13T14:54:17.718Z,8.00
2023-10-13T14:56:45.852Z,9.00
2023-10-13T14:59:18.504Z,7.10
2023-10-13T15:01:48.091Z,7.80
2023-10-13T15:04:16.633Z,7.90
2023-10-13T15:06:45.586Z,7.20
2023-10-13T15:09:13.841Z,7.70
2023-10-13T15:11:49.762Z,7.20
2023-10-13T15:14:21.533Z,7.20
2023-10-13T15:16:50.806Z,7.40
2023-10-13T15:19:19.389Z,6.50
2023-10-13T15:21:54.206Z,6.60
2023-10-13T15:24:26.976Z,6.70
2023-10-13T15:27:04.208Z,6.30
2023-10-13T15:29:38.682Z,6.40
2023-10-13T15:32:27.752Z,12.80
2023-10-13T15:34:57.286Z,7.20
2023-10-13T15:37:26.840Z,6.70
2023-10-13T15:39:57.139Z,6.30
2023-10-13T15:42:25.471Z,6.10
2023-10-13T15:45:36.736Z,6.40
2023-10-13T15:48:17.960Z,7.40
2023-10-13T15:50:51.419Z,6.90
2023-10-13T15:53:22.473Z,7.40
2023-10-13T15:55:51.295Z,6.80
2023-10-13T15:58:20.603Z,6.90
2023-10-13T16:00:49.229Z,7.10
2023-10-13T16:03:37.380Z,17.80
2023-10-13T16:06:11.242Z,9.60
2023-10-13T16:08:43.756Z,11.60
2023-10-13T16:11:31.994Z,11.60
2023-10-13T16:14:00.068Z,8.70
2023-10-13T16:16:28.388Z,8.10
2023-10-13T16:18:57.058Z,9.50
2023-10-13T16:21:45.635Z,12.20
2023-10-13T16:24:18.715Z,12.50
2023-10-13T16:27:15.276Z,9.30
2023-10-13T16:29:45.188Z,28.80
2023-10-13T16:32:36.132Z,21.00
2023-10-13T16:35:08.272Z,13.30
2023-10-13T16:37:36.433Z,22.50
2023-10-13T16:40:43.969Z,15.20
2023-10-13T16:43:15.369Z,35.50
2023-10-13T16:46:14.948Z,15.70
2023-10-13T16:49:03.759Z,12.70
2023-10-13T16:52:12.097Z,37.20
2023-10-13T16:54:41.715Z,14.70
2023-10-13T16:57:30.029Z,13.50
2023-10-13T17:00:20.050Z,11.30
2023-10-13T17:02:48.443Z,11.80
2023-10-13T17:05:37.202Z,12.40
2023-10-13T17:08:25.311Z,11.60
2023-10-13T17:10:57.856Z,16.00
2023-10-13T17:13:28.492Z,23.20
2023-10-13T17:16:00.693Z,29.60
2023-10-13T17:18:38.592Z,21.10
2023-10-13T17:21:55.114Z,21.30
2023-10-13T17:24:43.364Z,15.10
2023-10-13T17:27:55.732Z,11.40
2023-10-13T17:31:06.820Z,16.50
2023-10-13T17:33:59.650Z,56.10
2023-10-13T17:36:29.936Z,15.90
2023-10-13T17:39:18.453Z,11.70
2023-10-13T17:41:46.688Z,16.30
2023-10-13T17:44:15.908Z,15.70
2023-10-13T17:46:47.444Z,16.30
2023-10-13T17:49:55.404Z,16.40
2023-10-13T17:52:23.608Z,22.70
2023-10-13T17:56:15.422Z,13.60
2023-10-13T17:59:23.922Z,10.90
2023-10-13T18:01:52.647Z,27.70
2023-10-13T18:04:22.053Z,55.60
2023-10-13T18:07:33.189Z,15.80
2023-10-13T18:10:01.390Z,10.50
2023-10-13T18:12:30.557Z,25.20
2023-10-13T18:14:58.629Z,30.10
2023-10-13T18:17:33.568Z,19.20
2023-10-13T18:20:05.002Z,13.60
2023-10-13T18:22:33.106Z,16.40
2023-10-13T18:25:22.775Z,19.50
2023-10-13T18:28:11.502Z,13.00
2023-10-13T18:31:03.412Z,13.70
2023-10-13T18:33:35.954Z,13.20
2023-10-13T18:36:21.434Z,26.20
2023-10-13T18:39:10.249Z,42.00
2023-10-13T18:42:18.141Z,25.30
2023-10-13T18:45:06.383Z,15.10
2023-10-13T18:47:35.201Z,13.90
2023-10-13T18:50:06.489Z,13.20
2023-10-13T18:52:34.884Z,36.10
2023-10-13T18:55:06.730Z,58.40
2023-10-13T18:57:55.059Z,13.30
2023-10-13T19:00:27.122Z,12.90
2023-10-13T19:02:55.757Z,38.80
2023-10-13T19:05:23.962Z,13.80
2023-10-13T19:08:13.818Z,12.80
2023-10-13T19:10:42.011Z,12.00
2023-10-13T19:13:30.125Z,13.00
2023-10-13T19:16:02.331Z,12.20
2023-10-13T19:19:34.208Z,11.50
2023-10-13T19:27:00.195Z,20.50
2023-10-13T19:30:28.794Z,17.30
2023-10-13T19:44:26.069Z,16.40
2023-10-13T19:48:04.858Z,22.30
2023-10-13T20:02:24.039Z,14.40
2023-10-13T20:17:42.240Z,13.70
2023-10-13T20:21:30.863Z,34.70
2023-10-13T20:43:21.049Z,13.60
2023-10-13T20:46:10.507Z,14.10
2023-10-13T20:48:39.226Z,13.90
2023-10-13T20:51:11.190Z,14.30
2023-10-13T20:53:59.304Z,13.40
2023-10-13T20:56:50.891Z,14.60
2023-10-13T20:59:22.493Z,14.10
2023-10-13T21:02:31.876Z,14.80
2023-10-13T21:05:42.599Z,13.70
2023-10-13T21:09:12.689Z,12.40
2023-10-13T21:12:43.198Z,11.80
2023-10-13T21:15:17.375Z,12.60
2023-10-13T21:18:15.137Z,11.10
2023-10-13T21:22:14.482Z,11.50
2023-10-13T21:26:11.180Z,11.60
2023-10-13T21:34:20.503Z,12.30
2023-10-13T21:36:52.692Z,12.20
2023-10-13T21:39:30.841Z,13.30
2023-10-13T21:42:06.813Z,12.30
2023-10-13T21:44:38.389Z,13.40
2023-10-13T21:47:08.313Z,14.00
2023-10-13T23:31:53.242Z,14.20
2023-10-13T23:34:22.518Z,14.40
2023-10-13T23:36:49.586Z,14.80
2023-10-13T23:39:28.381Z,15.60
2023-10-13T23:41:58.678Z,15.60
2023-10-13T23:44:32.965Z,16.70
2023-10-13T23:47:00.134Z,16.00
2023-10-13T23:49:28.532Z,16.50
2023-10-13T23:52:01.833Z,16.90
2023-10-13T23:54:31.588Z,15.30
2023-10-13T23:57:01.501Z,14.50
2023-10-13T23:59:28.905Z,15.50
